Time;durP1;ratioP1;P1;durP2;ratioP2;P2;SDS_P1;SDS_P2;PMS_P1;PMS_P2;Temp;Humidity;BMP_temperature;BMP_pressure;BME280_temperature;BME280_humidity;BME280_pressure;Samples;Min_cycle;Max_cycle;Signal;HPM_P1;HPM_P2
2022/03/31 00:00:40;;;;;;;39.33;21.40;;;11.70;99.90;;;;;;4909818;29;20025;-87
2022/03/31 00:03:14;;;;;;;47.35;24.00;;;11.70;99.90;;;;;;4912833;29;20416;-87
2022/03/31 00:05:40;;;;;;;48.63;24.33;;;11.70;99.90;;;;;;4912942;29;20036;-84
2022/03/31 00:08:11;;;;;;;48.85;24.13;;;11.70;99.90;;;;;;4918164;29;20032;-85
2022/03/31 00:10:43;;;;;;;48.05;23.63;;;11.70;99.90;;;;;;4917121;29;20028;-85
2022/03/31 00:13:12;;;;;;;48.38;25.17;;;11.70;99.90;;;;;;4920543;29;20040;-85
2022/03/31 00:15:38;;;;;;;46.20;24.83;;;11.60;99.90;;;;;;4902686;29;20029;-85
2022/03/31 00:18:06;;;;;;;53.17;23.75;;;11.60;99.90;;;;;;4919500;29;20012;-84
2022/03/31 00:20:32;;;;;;;56.30;24.35;;;11.60;99.90;;;;;;4919863;29;20028;-84
2022/03/31 00:22:58;;;;;;;49.55;24.35;;;11.60;99.90;;;;;;4921395;29;20096;-84
2022/03/31 00:25:25;;;;;;;57.05;25.50;;;11.60;99.90;;;;;;4920664;29;20028;-85
2022/03/31 00:27:51;;;;;;;50.67;22.58;;;11.60;99.90;;;;;;4920741;29;20023;-85
2022/03/31 00:30:17;;;;;;;47.33;24.35;;;11.60;99.90;;;;;;4919887;29;20020;-85
2022/03/31 00:32:44;;;;;;;48.35;23.75;;;11.50;99.90;;;;;;4921920;29;20040;-84
2022/03/31 00:35:12;;;;;;;51.10;25.08;;;11.60;99.90;;;;;;4922788;29;20101;-85
2022/03/31 00:37:43;;;;;;;48.22;24.67;;;11.50;99.90;;;;;;4922200;29;20053;-83
2022/03/31 00:40:12;;;;;;;52.55;24.40;;;11.60;99.90;;;;;;4921836;29;20029;-83
2022/03/31 00:42:40;;;;;;;52.67;25.00;;;11.60;99.90;;;;;;4918874;29;20035;-83
2022/03/31 00:45:14;;;;;;;54.85;25.50;;;11.60;99.90;;;;;;4922379;29;20044;-81
2022/03/31 00:47:40;;;;;;;48.53;25.25;;;11.60;99.90;;;;;;4922465;29;20045;-81
2022/03/31 00:50:07;;;;;;;50.60;27.40;;;11.50;99.90;;;;;;4922464;29;20092;-83
2022/03/31 00:52:32;;;;;;;49.28;25.20;;;11.50;99.90;;;;;;4921957;29;20033;-85
2022/03/31 00:54:58;;;;;;;51.42;24.65;;;11.50;99.90;;;;;;4922442;29;20052;-83
2022/03/31 00:57:24;;;;;;;53.55;24.70;;;11.50;99.90;;;;;;4922630;29;20032;-82
2022/03/31 00:59:50;;;;;;;50.92;25.00;;;11.50;99.90;;;;;;4922324;29;20037;-84
2022/03/31 01:02:16;;;;;;;50.17;24.30;;;11.50;99.90;;;;;;4921229;29;20088;-84
2022/03/31 01:04:42;;;;;;;57.00;26.65;;;11.40;99.90;;;;;;4921454;29;20017;-84
2022/03/31 01:07:07;;;;;;;50.92;25.67;;;11.40;99.90;;;;;;4917205;29;20041;-84
2022/03/31 01:09:33;;;;;;;53.38;26.10;;;11.40;99.90;;;;;;4936642;29;20045;-84
2022/03/31 01:12:01;;;;;;;54.97;26.05;;;11.40;99.90;;;;;;4921614;29;20038;-86
2022/03/31 01:14:28;;;;;;;55.60;26.98;;;11.40;99.90;;;;;;4921025;29;20024;-85
2022/03/31 01:16:54;;;;;;;57.55;26.58;;;11.40;99.90;;;;;;4918121;29;20032;-83
2022/03/31 01:19:20;;;;;;;55.33;25.52;;;11.40;99.90;;;;;;4920912;29;20033;-84
2022/03/31 01:21:46;;;;;;;60.35;27.45;;;11.40;99.90;;;;;;4913112;29;20044;-83
2022/03/31 01:24:17;;;;;;;60.17;27.30;;;11.30;99.90;;;;;;4908978;29;20031;-84
2022/03/31 01:26:43;;;;;;;55.70;25.33;;;11.30;99.90;;;;;;4912081;29;20116;-83
2022/03/31 01:29:10;;;;;;;51.53;26.30;;;11.30;99.90;;;;;;4915085;29;20049;-84
2022/03/31 01:31:38;;;;;;;54.53;26.67;;;11.30;99.90;;;;;;4917619;29;20037;-84
2022/03/31 01:34:07;;;;;;;53.63;26.55;;;11.30;99.90;;;;;;4917134;29;20091;-84
2022/03/31 01:36:35;;;;;;;53.00;25.98;;;11.30;99.90;;;;;;4912909;29;20024;-84
2022/03/31 01:39:01;;;;;;;52.97;27.52;;;11.30;99.90;;;;;;4917014;29;20040;-84
2022/03/31 01:41:26;;;;;;;56.10;27.17;;;11.30;99.90;;;;;;4919677;29;20053;-85
2022/03/31 01:43:52;;;;;;;57.25;26.80;;;11.30;99.90;;;;;;4917330;29;20528;-86
2022/03/31 01:46:18;;;;;;;54.03;26.75;;;11.30;99.90;;;;;;4918231;29;20037;-83
2022/03/31 01:48:44;;;;;;;56.67;27.45;;;11.30;99.90;;;;;;4918328;29;20057;-84
2022/03/31 01:51:10;;;;;;;55.97;27.33;;;11.30;99.90;;;;;;4924130;29;20040;-84
2022/03/31 01:53:38;;;;;;;57.83;27.58;;;11.20;99.90;;;;;;4923877;29;20055;-84
2022/03/31 01:56:04;;;;;;;61.80;28.08;;;11.20;99.90;;;;;;4924755;29;20036;-83
2022/03/31 01:58:31;;;;;;;61.17;29.42;;;11.20;99.90;;;;;;4922211;29;20045;-85
2022/03/31 02:00:59;;;;;;;60.22;28.75;;;11.10;99.90;;;;;;4922002;29;20044;-86
2022/03/31 02:03:25;;;;;;;58.28;28.27;;;11.10;99.90;;;;;;4924865;29;20019;-83
2022/03/31 02:05:51;;;;;;;59.47;28.20;;;11.10;99.90;;;;;;4922649;29;20033;-86
2022/03/31 02:08:18;;;;;;;66.53;29.00;;;11.00;99.90;;;;;;4917443;29;20084;-83
2022/03/31 02:10:44;;;;;;;55.92;27.42;;;11.00;99.90;;;;;;4922720;29;20081;-86
2022/03/31 02:13:11;;;;;;;58.58;29.25;;;10.90;99.90;;;;;;4922749;29;20056;-85
2022/03/31 02:15:37;;;;;;;56.58;28.50;;;10.90;99.90;;;;;;4921984;29;20044;-84
2022/03/31 02:18:03;;;;;;;62.42;30.00;;;10.80;99.90;;;;;;4917724;29;20032;-84
2022/03/31 02:20:30;;;;;;;58.28;28.08;;;10.80;99.90;;;;;;4922824;29;20029;-84
2022/03/31 02:23:00;;;;;;;58.75;27.80;;;10.70;99.90;;;;;;4902248;29;20057;-84
2022/03/31 02:25:26;;;;;;;54.08;27.13;;;10.70;99.90;;;;;;4917228;29;20056;-84
2022/03/31 02:27:53;;;;;;;61.17;28.48;;;10.60;99.90;;;;;;4918058;29;20021;-84
2022/03/31 02:30:21;;;;;;;60.45;28.70;;;10.70;99.90;;;;;;4917095;29;20093;-86
2022/03/31 02:32:47;;;;;;;69.45;29.88;;;10.60;99.90;;;;;;4917502;29;20084;-85
2022/03/31 02:35:13;;;;;;;61.05;29.17;;;10.60;99.90;;;;;;4917356;29;20036;-84
2022/03/31 02:37:38;;;;;;;60.72;29.67;;;10.60;99.90;;;;;;4920924;29;20049;-84
2022/03/31 02:40:06;;;;;;;62.88;27.83;;;10.50;99.90;;;;;;4920542;29;20093;-83
2022/03/31 02:42:35;;;;;;;66.25;27.98;;;10.50;99.90;;;;;;4922309;29;20092;-84
2022/03/31 02:45:03;;;;;;;62.75;28.20;;;10.50;99.90;;;;;;4919976;29;20037;-83
2022/03/31 02:47:29;;;;;;;58.05;28.83;;;10.50;99.90;;;;;;4918508;29;20039;-84
2022/03/31 02:49:57;;;;;;;64.43;30.73;;;10.40;99.90;;;;;;4919418;29;20041;-86
2022/03/31 02:52:23;;;;;;;66.45;30.02;;;10.30;99.90;;;;;;4922268;29;20012;-84
2022/03/31 02:57:33;;;;;;;65.13;30.70;;;10.20;99.90;;;;;;4918167;29;20031;-84
2022/03/31 02:59:59;;;;;;;67.95;31.13;;;10.20;99.90;;;;;;4916930;29;20025;-85
2022/03/31 03:02:25;;;;;;;71.35;31.92;;;10.20;99.90;;;;;;4915106;29;20032;-84
2022/03/31 03:04:50;;;;;;;69.18;32.03;;;10.20;99.90;;;;;;4916017;29;20127;-86
2022/03/31 03:07:16;;;;;;;62.47;29.60;;;10.20;99.90;;;;;;4909958;29;20045;-84
2022/03/31 03:09:42;;;;;;;69.45;31.17;;;10.20;99.90;;;;;;4909656;29;20039;-84
2022/03/31 03:12:09;;;;;;;67.07;32.85;;;10.10;99.90;;;;;;4908575;29;20096;-85
2022/03/31 03:14:34;;;;;;;62.72;30.38;;;10.10;99.90;;;;;;4911734;29;20053;-83
2022/03/31 03:17:00;;;;;;;66.95;31.10;;;10.10;99.90;;;;;;4918789;29;20043;-85
2022/03/31 03:19:26;;;;;;;65.50;31.33;;;10.10;99.90;;;;;;4919530;29;20032;-87
2022/03/31 03:21:52;;;;;;;72.82;31.17;;;10.10;99.90;;;;;;4918075;29;20043;-86
2022/03/31 03:24:18;;;;;;;75.00;32.17;;;10.10;99.90;;;;;;4916755;29;20064;-84
2022/03/31 03:26:44;;;;;;;67.18;30.30;;;10.10;99.90;;;;;;4916324;29;20056;-84
2022/03/31 03:29:09;;;;;;;78.45;32.35;;;10.10;99.90;;;;;;4905755;29;20374;-87
2022/03/31 03:31:36;;;;;;;75.70;32.25;;;10.10;99.90;;;;;;4906652;29;20029;-85
2022/03/31 03:34:02;;;;;;;71.30;30.67;;;10.10;99.90;;;;;;4906829;29;20040;-85
2022/03/31 03:36:28;;;;;;;62.90;30.85;;;10.10;99.90;;;;;;4906136;29;20097;-86
2022/03/31 03:38:54;;;;;;;66.40;29.83;;;10.10;99.90;;;;;;4909682;29;20025;-84
2022/03/31 03:41:19;;;;;;;60.45;30.60;;;10.10;99.90;;;;;;4920066;29;20036;-85
2022/03/31 03:43:45;;;;;;;66.07;30.98;;;10.10;99.90;;;;;;4917877;29;20017;-83
2022/03/31 03:46:11;;;;;;;76.03;34.00;;;10.00;99.90;;;;;;4919078;29;20043;-86
2022/03/31 03:48:37;;;;;;;77.35;32.92;;;10.00;99.90;;;;;;4910740;29;20118;-86
2022/03/31 03:51:03;;;;;;;63.78;31.15;;;10.00;99.90;;;;;;4907642;29;20039;-85
2022/03/31 03:53:29;;;;;;;83.65;34.53;;;10.00;99.90;;;;;;4891776;29;20029;-85
2022/03/31 03:55:55;;;;;;;73.93;32.90;;;9.90;99.90;;;;;;4907743;29;20044;-86
2022/03/31 03:58:21;;;;;;;77.18;33.53;;;9.90;99.90;;;;;;4932654;23;20044;-81
2022/03/31 04:00:46;;;;;;;66.03;33.45;;;9.90;99.90;;;;;;4915200;29;20029;-82
2022/03/31 04:03:12;;;;;;;77.15;32.47;;;9.80;99.90;;;;;;4911439;29;20025;-80
2022/03/31 04:05:38;;;;;;;66.40;32.55;;;9.80;99.90;;;;;;4911813;29;20115;-79
2022/03/31 04:08:05;;;;;;;70.35;32.30;;;9.80;99.90;;;;;;4910837;29;20043;-82
2022/03/31 04:10:34;;;;;;;77.22;34.15;;;9.70;99.90;;;;;;4910640;29;20060;-81
2022/03/31 04:13:00;;;;;;;73.38;34.58;;;9.80;99.90;;;;;;4910813;29;20052;-80
2022/03/31 04:15:26;;;;;;;69.82;31.55;;;9.80;99.90;;;;;;4911432;29;20514;-79
2022/03/31 04:17:51;;;;;;;69.10;31.50;;;9.80;99.90;;;;;;4911597;29;20028;-79
2022/03/31 04:20:17;;;;;;;75.57;34.17;;;9.80;99.90;;;;;;4912794;29;20052;-80
2022/03/31 04:22:43;;;;;;;70.63;32.00;;;9.70;99.90;;;;;;4914009;29;20049;-81
2022/03/31 04:25:11;;;;;;;70.60;32.22;;;9.70;99.90;;;;;;4911183;29;20086;-80
2022/03/31 04:27:38;;;;;;;82.22;33.88;;;9.70;99.90;;;;;;4905367;29;20396;-80
2022/03/31 04:30:06;;;;;;;70.72;34.78;;;9.70;99.90;;;;;;4914106;29;20434;-81
2022/03/31 04:32:31;;;;;;;82.88;37.53;;;9.70;99.90;;;;;;4897845;29;20084;-79
2022/03/31 04:34:57;;;;;;;77.53;34.25;;;9.60;99.90;;;;;;4913301;29;20032;-80
2022/03/31 04:37:23;;;;;;;75.00;33.20;;;9.70;99.90;;;;;;4913904;29;20017;-81
2022/03/31 04:39:49;;;;;;;74.03;33.45;;;9.70;99.90;;;;;;4913574;29;20024;-79
2022/03/31 04:42:15;;;;;;;73.60;33.60;;;9.80;99.90;;;;;;4914188;29;20496;-81
2022/03/31 04:44:41;;;;;;;76.03;35.63;;;9.80;99.90;;;;;;4914594;29;20036;-81
2022/03/31 04:47:07;;;;;;;71.20;34.65;;;9.80;99.90;;;;;;4921942;29;20025;-80
2022/03/31 04:49:34;;;;;;;78.90;35.08;;;9.80;99.90;;;;;;4921140;29;20032;-80
2022/03/31 04:52:00;;;;;;;81.40;35.90;;;9.80;99.90;;;;;;4920439;29;20021;-81
2022/03/31 04:54:26;;;;;;;75.80;36.03;;;9.80;99.90;;;;;;4912716;29;20100;-80
2022/03/31 04:56:52;;;;;;;84.90;38.13;;;9.80;99.90;;;;;;4913511;29;20028;-81
2022/03/31 04:59:18;;;;;;;80.85;36.35;;;9.80;99.90;;;;;;4920635;29;20053;-78
2022/03/31 05:01:44;;;;;;;88.93;37.38;;;9.80;99.90;;;;;;4921126;29;20055;-79
2022/03/31 05:04:10;;;;;;;82.85;36.80;;;9.80;99.90;;;;;;4920364;29;20041;-81
2022/03/31 05:06:36;;;;;;;92.68;38.03;;;9.80;99.90;;;;;;4920883;29;20028;-80
2022/03/31 05:09:02;;;;;;;91.10;38.92;;;9.80;99.90;;;;;;4914566;29;20036;-82
2022/03/31 05:11:28;;;;;;;91.05;38.72;;;9.80;99.90;;;;;;4911867;29;20037;-83
2022/03/31 05:13:54;;;;;;;86.10;39.50;;;9.80;99.90;;;;;;4894682;29;20306;-81
2022/03/31 05:16:19;;;;;;;88.95;41.72;;;9.80;99.90;;;;;;4894164;29;20088;-80
2022/03/31 05:18:47;;;;;;;95.95;42.20;;;9.80;99.90;;;;;;4911703;29;20532;-82
2022/03/31 05:21:14;;;;;;;88.55;40.92;;;9.80;99.90;;;;;;4911287;29;20017;-80
2022/03/31 05:23:40;;;;;;;91.40;39.83;;;9.80;99.90;;;;;;4907155;29;20052;-81
2022/03/31 05:26:05;;;;;;;86.78;40.38;;;9.80;99.90;;;;;;4911146;29;20024;-80
2022/03/31 05:28:31;;;;;;;90.18;39.50;;;9.80;99.90;;;;;;4911783;29;20037;-80
2022/03/31 05:30:57;;;;;;;97.32;42.70;;;9.80;99.90;;;;;;4912680;29;20017;-81
2022/03/31 05:33:23;;;;;;;92.72;41.85;;;9.80;99.90;;;;;;4914660;29;20060;-82
2022/03/31 05:35:49;;;;;;;90.43;40.30;;;9.80;99.90;;;;;;4911893;29;20028;-81
2022/03/31 05:38:15;;;;;;;93.82;41.45;;;9.70;99.90;;;;;;4911686;29;20029;-82
2022/03/31 05:40:40;;;;;;;93.85;42.28;;;9.70;99.90;;;;;;4918251;29;20057;-81
2022/03/31 05:43:06;;;;;;;96.70;43.42;;;9.70;99.90;;;;;;4921559;29;20037;-81
2022/03/31 05:45:32;;;;;;;92.53;42.42;;;9.70;99.90;;;;;;4926465;29;20020;-80
2022/03/31 05:47:58;;;;;;;94.78;41.88;;;9.60;99.90;;;;;;4930181;29;20032;-81
2022/03/31 05:50:25;;;;;;;94.53;42.22;;;9.60;99.90;;;;;;4921376;29;20040;-80
2022/03/31 05:52:50;;;;;;;94.28;41.85;;;9.70;99.90;;;;;;4915952;29;20481;-82
2022/03/31 05:55:18;;;;;;;97.60;43.50;;;9.70;99.90;;;;;;4912097;29;20036;-80
2022/03/31 05:57:45;;;;;;;93.82;41.58;;;9.70;99.90;;;;;;4911414;29;20041;-82
2022/03/31 06:00:17;;;;;;;89.40;41.63;;;9.70;99.90;;;;;;4910884;29;20039;-82
2022/03/31 06:02:44;;;;;;;97.88;41.80;;;9.70;99.90;;;;;;4911411;29;20108;-82
2022/03/31 06:05:10;;;;;;;95.05;41.65;;;9.70;99.90;;;;;;4908930;29;20024;-83
2022/03/31 06:07:38;;;;;;;95.60;43.00;;;9.70;99.90;;;;;;4922633;29;20033;-83
2022/03/31 06:10:05;;;;;;;91.78;43.85;;;9.70;99.90;;;;;;4898090;29;20044;-81
2022/03/31 06:12:31;;;;;;;88.85;43.40;;;9.60;99.90;;;;;;4914923;29;20029;-80
2022/03/31 06:14:57;;;;;;;123.28;56.15;;;9.60;99.90;;;;;;4916369;29;20025;-82
2022/03/31 06:17:23;;;;;;;94.90;43.25;;;9.60;99.90;;;;;;4911168;29;20429;-82
2022/03/31 06:19:49;;;;;;;101.65;44.78;;;9.60;99.90;;;;;;4916533;29;20052;-82
2022/03/31 06:22:15;;;;;;;96.32;41.92;;;9.60;99.90;;;;;;4918403;29;20048;-81
2022/03/31 06:24:41;;;;;;;99.55;44.58;;;9.60;99.90;;;;;;4929651;29;20039;-79
2022/03/31 06:27:08;;;;;;;93.43;43.90;;;9.60;99.90;;;;;;4924756;29;20072;-82
2022/03/31 06:29:34;;;;;;;96.32;42.75;;;9.60;99.90;;;;;;4919151;29;20028;-82
2022/03/31 06:32:01;;;;;;;88.20;41.10;;;9.50;99.90;;;;;;4916740;29;20039;-82
2022/03/31 06:34:27;;;;;;;87.50;41.90;;;9.50;99.90;;;;;;4911182;29;20059;-84
2022/03/31 06:36:54;;;;;;;94.88;41.45;;;9.50;99.90;;;;;;4905879;29;20729;-81
2022/03/31 06:39:20;;;;;;;105.15;42.47;;;9.50;99.90;;;;;;4910144;29;20024;-81
2022/03/31 06:41:46;;;;;;;91.53;44.17;;;9.50;99.90;;;;;;4915454;29;20035;-80
2022/03/31 06:44:13;;;;;;;87.40;43.72;;;9.40;99.90;;;;;;4908580;29;20080;-81
2022/03/31 06:46:43;;;;;;;90.78;43.63;;;9.40;99.90;;;;;;4914015;29;20063;-81
2022/03/31 06:49:09;;;;;;;90.32;43.88;;;9.30;99.90;;;;;;4911953;29;20024;-82
2022/03/31 06:51:35;;;;;;;89.43;41.78;;;9.30;99.90;;;;;;4915837;29;20033;-81
2022/03/31 06:54:02;;;;;;;88.72;42.58;;;9.20;99.90;;;;;;4915352;29;20032;-82
2022/03/31 06:56:30;;;;;;;90.35;41.92;;;9.30;99.90;;;;;;4917640;29;20020;-78
2022/03/31 06:58:56;;;;;;;95.07;45.72;;;9.30;99.90;;;;;;4935899;29;20108;-81
2022/03/31 07:01:22;;;;;;;94.20;42.63;;;9.30;99.90;;;;;;4923880;29;20615;-80
2022/03/31 07:03:48;;;;;;;87.75;41.55;;;9.30;99.90;;;;;;4914120;29;20269;-81
2022/03/31 07:06:14;;;;;;;86.55;41.47;;;9.30;99.90;;;;;;4916017;29;20032;-81
2022/03/31 07:08:40;;;;;;;75.25;39.30;;;9.40;99.90;;;;;;4914308;29;20024;-81
2022/03/31 07:11:07;;;;;;;81.95;39.95;;;9.40;99.90;;;;;;4910893;29;20052;-80
2022/03/31 07:13:33;;;;;;;80.60;39.42;;;9.30;99.90;;;;;;4914278;29;20040;-80
2022/03/31 07:15:59;;;;;;;75.20;37.10;;;9.30;99.90;;;;;;4911542;29;20045;-80
2022/03/31 07:18:25;;;;;;;79.00;37.33;;;9.30;99.90;;;;;;4914348;29;20108;-86
2022/03/31 07:20:51;;;;;;;74.50;36.28;;;9.30;99.90;;;;;;4912887;29;20045;-81
2022/03/31 07:23:25;;;;;;;79.70;38.85;;;9.30;99.90;;;;;;4909157;29;20100;-81
2022/03/31 07:25:53;;;;;;;76.45;37.17;;;9.40;99.90;;;;;;4906011;29;20067;-84
2022/03/31 07:28:19;;;;;;;75.80;37.65;;;9.30;99.90;;;;;;4891468;29;20035;-83
2022/03/31 07:30:47;;;;;;;70.80;36.88;;;9.30;99.90;;;;;;4908208;29;20368;-85
2022/03/31 07:33:14;;;;;;;76.88;38.00;;;9.30;99.90;;;;;;4909810;29;20052;-82
2022/03/31 07:35:41;;;;;;;78.80;35.72;;;9.30;99.90;;;;;;4911494;29;20057;-82
2022/03/31 07:38:08;;;;;;;70.60;36.63;;;9.30;99.90;;;;;;4909857;29;20092;-80
2022/03/31 07:40:36;;;;;;;69.22;35.22;;;9.30;99.90;;;;;;4915066;29;20084;-81
2022/03/31 07:43:04;;;;;;;75.85;36.08;;;9.30;99.90;;;;;;4913012;29;20097;-81
2022/03/31 07:45:31;;;;;;;68.53;33.78;;;9.20;99.90;;;;;;4909674;29;20040;-80
2022/03/31 07:47:56;;;;;;;68.40;34.40;;;9.30;99.90;;;;;;4911181;29;20055;-79
2022/03/31 07:50:22;;;;;;;70.85;34.70;;;9.20;99.90;;;;;;4908677;29;20025;-82
2022/03/31 07:52:49;;;;;;;68.18;33.95;;;9.30;99.90;;;;;;4908811;29;20052;-82
2022/03/31 07:55:17;;;;;;;66.93;34.70;;;9.30;99.90;;;;;;4910943;29;20069;-80
2022/03/31 07:57:43;;;;;;;68.78;35.05;;;9.30;99.90;;;;;;4892070;29;20043;-82
2022/03/31 08:00:12;;;;;;;66.25;34.60;;;9.30;99.90;;;;;;4907753;29;20385;-80
2022/03/31 08:02:42;;;;;;;70.00;34.83;;;9.30;99.90;;;;;;4905406;29;20025;-80
2022/03/31 08:05:09;;;;;;;72.18;35.58;;;9.40;99.90;;;;;;4904913;29;20043;-80
2022/03/31 08:07:36;;;;;;;69.63;35.05;;;9.40;99.90;;;;;;4909096;29;20115;-80
2022/03/31 08:10:03;;;;;;;63.10;31.73;;;9.50;99.90;;;;;;4905513;29;20088;-81
2022/03/31 08:12:29;;;;;;;64.60;31.80;;;9.40;99.90;;;;;;4905602;29;20544;-80
2022/03/31 08:14:55;;;;;;;64.63;31.58;;;9.30;99.90;;;;;;4906839;29;20071;-80
2022/03/31 08:17:20;;;;;;;66.00;31.50;;;9.30;99.90;;;;;;4907141;29;20028;-80
2022/03/31 08:19:47;;;;;;;65.68;33.40;;;9.20;99.90;;;;;;4905889;29;20016;-80
2022/03/31 08:22:13;;;;;;;60.53;30.23;;;9.30;99.90;;;;;;4915148;29;20110;-80
2022/03/31 08:24:39;;;;;;;63.40;32.83;;;9.30;99.90;;;;;;4912650;29;20552;-78
2022/03/31 08:27:05;;;;;;;66.30;32.15;;;9.20;99.90;;;;;;4903494;29;20064;-80
2022/03/31 08:29:33;;;;;;;64.65;32.97;;;9.30;99.90;;;;;;4905016;29;20036;-80
2022/03/31 08:32:01;;;;;;;65.72;33.42;;;9.30;99.90;;;;;;4906711;29;20028;-79
2022/03/31 08:34:27;;;;;;;67.45;33.78;;;9.30;99.90;;;;;;4904954;29;20032;-80
2022/03/31 08:36:53;;;;;;;69.03;33.67;;;9.30;99.90;;;;;;4903281;29;20024;-79
2022/03/31 08:39:19;;;;;;;75.18;35.45;;;9.30;99.90;;;;;;4901995;29;20040;-80
2022/03/31 08:41:45;;;;;;;74.07;36.85;;;9.30;99.90;;;;;;4903063;29;20076;-80
2022/03/31 08:44:13;;;;;;;69.22;34.47;;;9.30;99.90;;;;;;4903355;29;20119;-82
2022/03/31 08:46:39;;;;;;;75.93;34.80;;;9.30;99.90;;;;;;4901213;29;20036;-81
2022/03/31 08:49:08;;;;;;;70.28;34.72;;;9.30;99.90;;;;;;4904389;29;20039;-82
2022/03/31 08:51:34;;;;;;;73.18;35.63;;;9.20;99.90;;;;;;4909074;29;20102;-81
2022/03/31 08:54:00;;;;;;;75.32;34.65;;;9.20;99.90;;;;;;4910745;29;20035;-80
2022/03/31 08:56:26;;;;;;;73.32;34.47;;;9.10;99.90;;;;;;4912381;29;20020;-82
2022/03/31 08:58:52;;;;;;;73.90;35.60;;;9.20;99.90;;;;;;4912844;29;20059;-84
2022/03/31 09:01:18;;;;;;;69.30;33.58;;;9.20;99.90;;;;;;4916475;29;20024;-82
2022/03/31 09:03:44;;;;;;;68.65;34.40;;;9.20;99.90;;;;;;4909551;29;20051;-81
2022/03/31 09:06:24;;;;;;;72.97;34.35;;;9.20;99.90;;;;;;4907662;29;20492;-79
2022/03/31 09:09:04;;;;;;;68.85;33.55;;;9.20;99.90;;;;;;4908390;29;20029;-80
2022/03/31 09:11:31;;;;;;;70.10;33.85;;;9.20;99.90;;;;;;4909750;29;20037;-81
2022/03/31 09:13:58;;;;;;;74.03;34.53;;;9.10;99.90;;;;;;4914654;29;20028;-82
2022/03/31 09:16:33;;;;;;;71.63;36.15;;;9.00;99.90;;;;;;4930670;29;20036;-82
2022/03/31 09:19:00;;;;;;;;;;;9.00;99.90;;;;;;4905721;29;20079;-84
2022/03/31 09:21:25;;;;;;;70.13;35.45;;;9.00;99.90;;;;;;4909623;29;19907;-83
2022/03/31 09:23:51;;;;;;;77.13;36.72;;;9.00;99.90;;;;;;4905418;29;20036;-82
2022/03/31 09:26:18;;;;;;;76.93;36.83;;;9.00;99.90;;;;;;4907840;29;20047;-82
2022/03/31 09:28:45;;;;;;;73.68;35.92;;;9.00;99.90;;;;;;4916712;29;20051;-81
2022/03/31 09:31:12;;;;;;;69.85;34.33;;;9.00;99.90;;;;;;4911827;29;20017;-81
2022/03/31 09:33:42;;;;;;;76.40;36.08;;;8.90;99.90;;;;;;4912624;29;20069;-82
2022/03/31 09:36:19;;;;;;;80.45;32.95;;;8.90;99.90;;;;;;4925968;29;20017;-84
2022/03/31 09:39:00;;;;;;;74.25;35.05;;;8.90;99.90;;;;;;4911510;29;20068;-79
2022/03/31 09:41:30;;;;;;;68.30;34.78;;;8.90;99.90;;;;;;4908856;29;20036;-83
2022/03/31 09:43:57;;;;;;;79.10;34.15;;;9.00;99.90;;;;;;4903891;29;20063;-79
2022/03/31 09:46:25;;;;;;;63.42;32.78;;;9.00;99.90;;;;;;4906141;29;20084;-81
2022/03/31 09:48:52;;;;;;;68.25;33.22;;;9.00;99.90;;;;;;4901540;29;20125;-82
2022/03/31 09:51:20;;;;;;;69.47;32.55;;;9.00;99.90;;;;;;4912826;29;20027;-80
2022/03/31 09:53:48;;;;;;;66.00;31.85;;;9.00;99.90;;;;;;4924100;29;20122;-82
2022/03/31 09:56:17;;;;;;;65.13;30.65;;;9.00;99.90;;;;;;4913832;29;20013;-83
2022/03/31 09:58:46;;;;;;;62.30;30.77;;;9.00;99.90;;;;;;4935753;23;20059;-84
2022/03/31 10:01:14;;;;;;;61.83;29.25;;;9.10;99.90;;;;;;4918032;29;20020;-84
2022/03/31 10:03:40;;;;;;;63.10;31.60;;;9.00;99.90;;;;;;4917989;29;20021;-84
2022/03/31 10:06:08;;;;;;;69.80;30.65;;;9.00;99.90;;;;;;4917115;29;20080;-82
2022/03/31 10:08:40;;;;;;;62.78;32.35;;;9.00;99.90;;;;;;4901682;29;20017;-84
2022/03/31 10:11:13;;;;;;;60.92;30.02;;;9.00;99.90;;;;;;4899224;29;20025;-85
2022/03/31 10:14:12;;;;;;;63.38;29.52;;;9.00;99.90;;;;;;4903440;29;20040;-82
2022/03/31 10:16:47;;;;;;;62.70;30.13;;;9.10;99.90;;;;;;4903517;29;20036;-84
2022/03/31 10:19:25;;;;;;;;;;;9.10;99.90;;;;;;4901017;29;20040;-86
2022/03/31 10:24:41;;;;;;;57.67;29.27;;;9.10;99.90;;;;;;4880253;29;19912;-86
2022/03/31 10:25:02;;;;;;;54.60;29.08;;;9.10;99.90;;;;;;4896204;29;20034;-84
2022/03/31 10:27:31;;;;;;;60.63;29.27;;;9.20;99.90;;;;;;4886525;29;20029;-86
2022/03/31 10:30:21;;;;;;;55.95;28.20;;;9.30;99.90;;;;;;4895560;29;20025;-85
2022/03/31 10:32:52;;;;;;;56.70;29.45;;;9.20;99.90;;;;;;4911892;29;20060;-85
2022/03/31 10:35:25;;;;;;;55.88;29.55;;;9.20;99.90;;;;;;4894861;29;20054;-84
2022/03/31 10:37:51;;;;;;;62.13;28.40;;;9.20;99.90;;;;;;4902154;29;20017;-83
2022/03/31 10:40:32;;;;;;;59.47;29.45;;;9.20;99.90;;;;;;4904514;29;20013;-81
2022/03/31 10:42:58;;;;;;;81.50;39.78;;;9.30;99.90;;;;;;4904669;29;20077;-86
2022/03/31 10:45:58;;;;;;;56.50;28.15;;;9.30;99.90;;;;;;4903565;29;20017;-86
2022/03/31 10:48:27;;;;;;;59.00;28.17;;;9.40;99.90;;;;;;4900588;29;20029;-86
2022/03/31 10:51:08;;;;;;;60.22;27.60;;;9.50;99.90;;;;;;4906324;29;20013;-86
2022/03/31 10:53:39;;;;;;;55.83;26.58;;;9.50;99.90;;;;;;4887557;29;20026;-85
2022/03/31 10:56:18;;;;;;;51.53;26.17;;;9.60;99.90;;;;;;4904461;29;20025;-84
2022/03/31 10:58:45;;;;;;;51.65;27.23;;;9.60;99.90;;;;;;4904961;29;20045;-84
2022/03/31 11:01:11;;;;;;;49.28;26.75;;;9.60;99.90;;;;;;4888335;29;20052;-83
2022/03/31 11:03:38;;;;;;;52.88;26.25;;;9.70;99.90;;;;;;4919009;29;20061;-84
2022/03/31 11:06:07;;;;;;;46.00;25.45;;;9.70;99.90;;;;;;4896145;29;20032;-85
2022/03/31 11:08:47;;;;;;;50.90;25.80;;;9.70;99.90;;;;;;4900688;29;20033;-86
2022/03/31 11:11:22;;;;;;;47.28;24.70;;;9.80;99.90;;;;;;4914268;29;20049;-87
2022/03/31 11:13:49;;;;;;;44.10;23.48;;;9.60;99.90;;;;;;4874760;29;20044;-86
2022/03/31 11:16:15;;;;;;;44.95;24.42;;;9.60;99.90;;;;;;4892891;29;20191;-87
2022/03/31 11:18:55;;;;;;;43.72;23.45;;;9.50;99.90;;;;;;4893900;29;20029;-85
2022/03/31 11:21:22;;;;;;;48.08;24.15;;;9.50;99.90;;;;;;4892528;29;20037;-85
2022/03/31 11:23:49;;;;;;;53.53;24.98;;;9.60;99.90;;;;;;4896477;29;20142;-87
2022/03/31 11:26:29;;;;;;;47.33;25.10;;;9.60;99.90;;;;;;4897055;29;20032;-88
2022/03/31 11:28:55;;;;;;;41.28;22.80;;;9.50;99.90;;;;;;4890412;29;20025;-87
2022/03/31 11:31:22;;;;;;;50.28;23.27;;;9.60;99.90;;;;;;4887684;29;20037;-87
2022/03/31 11:33:49;;;;;;;51.20;22.33;;;9.60;99.90;;;;;;4894174;29;20493;-86
2022/03/31 11:36:17;;;;;;;40.60;22.52;;;9.70;99.90;;;;;;4893563;29;20539;-85
2022/03/31 11:38:57;;;;;;;40.00;22.27;;;9.70;99.90;;;;;;4865226;29;20028;-87
2022/03/31 11:41:26;;;;;;;40.47;21.77;;;9.70;99.90;;;;;;4891535;29;20501;-86
2022/03/31 11:43:59;;;;;;;43.70;22.08;;;9.70;99.90;;;;;;4899402;29;20070;-85
2022/03/31 11:46:26;;;;;;;45.15;23.63;;;9.70;99.90;;;;;;4912954;29;20625;-87
2022/03/31 11:48:52;;;;;;;43.47;23.60;;;9.60;99.90;;;;;;4890245;29;20056;-86
2022/03/31 11:51:19;;;;;;;40.50;20.65;;;9.70;99.90;;;;;;4904226;29;20036;-87
2022/03/31 11:53:47;;;;;;;43.53;23.80;;;9.70;99.90;;;;;;4867854;29;20032;-89
2022/03/31 11:56:21;;;;;;;44.80;23.42;;;9.80;99.90;;;;;;4904782;29;20036;-86
2022/03/31 11:58:52;;;;;;;42.33;23.63;;;9.70;99.90;;;;;;4890107;29;20048;-87
2022/03/31 12:01:22;;;;;;;42.45;24.00;;;9.70;99.90;;;;;;4885919;29;20090;-86
2022/03/31 12:03:48;;;;;;;39.67;22.65;;;9.60;99.90;;;;;;4888375;29;20021;-86
2022/03/31 12:06:16;;;;;;;43.38;24.65;;;9.60;99.90;;;;;;4889217;29;20029;-85
2022/03/31 12:08:42;;;;;;;41.90;24.48;;;9.40;99.90;;;;;;4891706;29;20021;-86
2022/03/31 12:11:09;;;;;;;44.50;25.25;;;9.40;99.90;;;;;;4888067;29;20085;-86
2022/03/31 12:13:50;;;;;;;44.97;23.98;;;9.30;99.90;;;;;;4889064;29;20021;-85
2022/03/31 12:16:16;;;;;;;50.28;25.27;;;9.30;99.90;;;;;;4892691;29;20056;-87
2022/03/31 12:18:43;;;;;;;45.97;25.05;;;9.30;99.90;;;;;;4886546;29;20036;-85
2022/03/31 12:21:10;;;;;;;47.88;25.67;;;9.30;99.90;;;;;;4881474;29;20032;-86
2022/03/31 12:23:44;;;;;;;46.00;25.02;;;9.30;99.90;;;;;;4882317;29;20085;-86
2022/03/31 12:26:20;;;;;;;51.03;25.38;;;9.30;99.90;;;;;;4886208;29;20054;-84
2022/03/31 12:28:49;;;;;;;48.00;25.77;;;9.30;99.90;;;;;;4883062;29;20041;-85
2022/03/31 12:31:30;;;;;;;49.92;26.08;;;9.20;99.90;;;;;;4887690;29;20033;-85
2022/03/31 12:33:57;;;;;;;47.92;26.40;;;9.20;99.90;;;;;;4889844;29;20033;-85
2022/03/31 12:36:29;;;;;;;56.65;27.98;;;9.10;99.90;;;;;;4893046;29;20029;-86
2022/03/31 12:38:56;;;;;;;53.35;27.23;;;9.10;99.90;;;;;;4908481;29;20069;-84